Saga Sapphire — 9HOF8 — position and weather

sailwx.info

Track history (hours):
 
Tides and Currents Weather Stations Pressure Air Temp Water Temp Dewpoint Dewpoint Depression Visibility Wind Speed Wind Dir Waves Ship Positions

Saga Sapphire

Last reported at 2014-Dec-22 02:10 UTC. Time now 2014-Dec-22 03:29 UTC.
Position N 50°17' W 001°22'.

Length 200 m; draft 8.7 m.

Type: Passenger vessel. MMSI: 256208000.

Date/timePositionNaut miles runAvg speedWind from/ knotsBaromVisibWave heightAir tempDewpointWater temp
2014-Dec-22 02:10N 50°17' W 001°22'1517.6
2014-Dec-22 01:18N 50°22' W 000°59'4315.4
2014-Dec-21 22:31N 50°32' E 000°06'1212.9
2014-Dec-21 21:33N 50°36' E 000°25'1312.6
2014-Dec-21 20:33N 50°42' E 000°42'1313.3
2014-Dec-21 19:33N 50°50' E 000°59'610.6
2014-Dec-21 19:00N 50°54' E 001°06'919.9 310 / 351024.910.8 1.011.8 7.710.0
2014-Dec-21 18:33N 50°60' E 001°16'8 7.5
2014-Dec-21 17:33N 51°07' E 001°20'0 0.1
2014-Dec-21 13:23N 51°07' E 001°19'0 0.0
2014-Dec-21 02:14N 51°07' E 001°19'0 0.0
2014-Dec-21 01:32N 51°07' E 001°19'0 0.0
2014-Dec-21 00:23N 51°07' E 001°19'2 2.0
2014-Dec-20 23:30N 51°07' E 001°22'2 2.4
2014-Dec-20 22:34N 51°08' E 001°25'6 6.4
2014-Dec-20 21:33N 51°09' E 001°35'8 8.4
2014-Dec-20 20:34N 51°14' E 001°45'8 7.5
2014-Dec-20 19:33N 51°21' E 001°49'7 7.3
2014-Dec-20 18:33N 51°27' E 001°56'7 7.1
2014-Dec-20 17:33N 51°32' E 002°04'6510.5
2014-Dec-20 11:22N 52°04' E 003°36'1113.0
2014-Dec-20 10:33N 52°02' E 003°53'1212.5
2014-Dec-20 09:33N 51°57' E 004°11'9 8.7
2014-Dec-20 08:34N 51°54' E 004°25'3 2.4
2014-Dec-20 07:29N 51°54' E 004°29'0 0.0
2014-Dec-20 06:29N 51°54' E 004°29'0 0.0
2014-Dec-20 05:29N 51°54' E 004°29'0 0.0
2014-Dec-20 04:29N 51°54' E 004°29'0 0.0
2014-Dec-20 03:29N 51°54' E 004°29'0 0.0
2014-Dec-20 02:29N 51°54' E 004°29'0 0.0
2014-Dec-20 01:32N 51°54' E 004°29'0 0.0
2014-Dec-20 00:32N 51°54' E 004°29'0 0.0
2014-Dec-19 23:32N 51°54' E 004°29'1 0.5
2014-Dec-19 22:33N 51°54' E 004°28'3 3.4
2014-Dec-19 21:33N 51°54' E 004°23'  
Track history (hours):
 
Tides and Currents Weather Stations Pressure Air Temp Water Temp Dewpoint Dewpoint Depression Visibility Wind Speed Wind Dir Waves Ship Positions

Saga Sapphire

Last reported at 2014-Dec-22 02:10 UTC. Time now 2014-Dec-22 03:29 UTC.
Position N 50°17' W 001°22'.

Length 200 m; draft 8.7 m.

Type: Passenger vessel. MMSI: 256208000.

Date/timePositionNaut miles runAvg speedWind from/ knotsBaromVisibWave heightAir tempDewpointWater temp
2014-Dec-22 02:10N 50°17' W 001°22'1517.6
2014-Dec-22 01:18N 50°22' W 000°59'4315.4
2014-Dec-21 22:31N 50°32' E 000°06'1212.9
2014-Dec-21 21:33N 50°36' E 000°25'1312.6
2014-Dec-21 20:33N 50°42' E 000°42'1313.3
2014-Dec-21 19:33N 50°50' E 000°59'610.6
2014-Dec-21 19:00N 50°54' E 001°06'919.9 310 / 351024.910.8 1.011.8 7.710.0
2014-Dec-21 18:33N 50°60' E 001°16'8 7.5
2014-Dec-21 17:33N 51°07' E 001°20'0 0.1
2014-Dec-21 13:23N 51°07' E 001°19'0 0.0
2014-Dec-21 02:14N 51°07' E 001°19'0 0.0
2014-Dec-21 01:32N 51°07' E 001°19'0 0.0
2014-Dec-21 00:23N 51°07' E 001°19'2 2.0
2014-Dec-20 23:30N 51°07' E 001°22'2 2.4
2014-Dec-20 22:34N 51°08' E 001°25'6 6.4
2014-Dec-20 21:33N 51°09' E 001°35'8 8.4
2014-Dec-20 20:34N 51°14' E 001°45'8 7.5
2014-Dec-20 19:33N 51°21' E 001°49'7 7.3
2014-Dec-20 18:33N 51°27' E 001°56'7 7.1
2014-Dec-20 17:33N 51°32' E 002°04'6510.5
2014-Dec-20 11:22N 52°04' E 003°36'1113.0
2014-Dec-20 10:33N 52°02' E 003°53'1212.5
2014-Dec-20 09:33N 51°57' E 004°11'9 8.7
2014-Dec-20 08:34N 51°54' E 004°25'3 2.4
2014-Dec-20 07:29N 51°54' E 004°29'0 0.0
2014-Dec-20 06:29N 51°54' E 004°29'0 0.0
2014-Dec-20 05:29N 51°54' E 004°29'0 0.0
2014-Dec-20 04:29N 51°54' E 004°29'0 0.0
2014-Dec-20 03:29N 51°54' E 004°29'0 0.0
2014-Dec-20 02:29N 51°54' E 004°29'0 0.0
2014-Dec-20 01:32N 51°54' E 004°29'0 0.0
2014-Dec-20 00:32N 51°54' E 004°29'0 0.0
2014-Dec-19 23:32N 51°54' E 004°29'1 0.5
2014-Dec-19 22:33N 51°54' E 004°28'3 3.4
2014-Dec-19 21:33N 51°54' E 004°23'  

Dump ship's entire track history